weather.gov     
National Weather Service

Terminal Aerodrome Forecast
NWS Homepage
This page is being discontinued on March 12, 2014.
The same data is available at this site. Please update your bookmarks.
Thank you, and we apologize for the inconvenience.
Please send an email to SR-SRH.Webmaster@noaa.gov with any concerns.


Current Version
Previous Version:    01  02  03  04  05  06  07  08  09  10  11  12  13  14  15  16  17  18  19  20  21  22  23  24  25  26  27  
[Printable]
102
FTUS45 KGJT 212326
TAFDRO
TAF
KDRO 212326Z 2200/2224 25012KT P6SM SCT100 BKN200
     FM220100 30008KT P6SM SCT100 BKN150
     FM220600 34006KT P6SM VCSH SCT070 OVC100
     FM221200 04005KT P6SM VCSH BKN070
     FM221800 08005KT P6SM SCT100 BKN150=


102
FTUS45 KGJT 212326
TAFDRO
TAF
KDRO 212326Z 2200/2224 25012KT P6SM SCT100 BKN200
     FM220100 30008KT P6SM SCT100 BKN150
     FM220600 34006KT P6SM VCSH SCT070 OVC100
     FM221200 04005KT P6SM VCSH BKN070
     FM221800 08005KT P6SM SCT100 BKN150=




U.S. Dept. of Commerce
NOAA National Weather Service
1325 East West Highway
Silver Spring, MD 20910
E-mail: w-nws.webmaster@noaa.gov
Page last modified: May 16, 2007
NATIONAL WEATHER SERVICE: for Safety, for Work, for Fun - FOR LIFE